Time;durP1;ratioP1;P1;durP2;ratioP2;P2;SDS_P1;SDS_P2;PMS_P1;PMS_P2;Temp;Humidity;BMP_temperature;BMP_pressure;BME280_temperature;BME280_humidity;BME280_pressure;Samples;Min_cycle;Max_cycle;Signal;HPM_P1;HPM_P2
2022/03/13 00:00:36;;;;;;;10.77;7.72;;;;;;;15.67;29.22;101238.56;5043733;28;20450;-75
2022/03/13 00:03:09;;;;;;;10.90;7.40;;;;;;;15.67;29.25;101231.25;5051858;28;20057;-76
2022/03/13 00:05:40;;;;;;;12.23;7.13;;;;;;;15.67;29.05;101238.56;5049580;28;20049;-76
2022/03/13 00:08:35;;;;;;;10.15;7.38;;;;;;;15.70;29.14;101232.88;5039199;28;20087;-76
2022/03/13 00:11:14;;;;;;;10.73;7.63;;;;;;;15.68;28.97;101235.72;5050833;28;20118;-76
2022/03/13 00:13:50;;;;;;;9.77;7.00;;;;;;;15.68;28.72;101237.59;5049424;28;20061;-76
2022/03/13 00:16:19;;;;;;;10.73;7.45;;;;;;;15.65;28.74;101241.44;5021824;28;20044;-75
2022/03/13 00:18:46;;;;;;;10.90;7.50;;;;;;;15.65;28.35;101235.13;5049754;28;20098;-76
2022/03/13 00:21:16;;;;;;;10.38;7.00;;;;;;;15.65;28.83;101240.59;5050647;28;20045;-75
2022/03/13 00:23:43;;;;;;;9.77;7.22;;;;;;;15.61;28.57;101234.50;5049837;28;20053;-75
2022/03/13 00:26:11;;;;;;;11.40;7.57;;;;;;;15.60;28.34;101230.88;5050003;28;20439;-75
2022/03/13 00:28:37;;;;;;;10.60;7.20;;;;;;;15.60;28.65;101240.94;5032035;28;20057;-75
2022/03/13 00:31:05;;;;;;;12.27;7.55;;;;;;;15.60;28.66;101236.34;5050526;28;20059;-75
2022/03/13 00:33:33;;;;;;;11.05;7.68;;;;;;;15.58;28.39;101226.50;5049265;28;20061;-75
2022/03/13 00:36:00;;;;;;;11.05;7.40;;;;;;;15.56;28.67;101223.06;5050499;28;20056;-75
2022/03/13 00:38:27;;;;;;;10.38;7.95;;;;;;;15.54;28.75;101223.19;5033215;28;20519;-75
2022/03/13 00:40:56;;;;;;;9.80;7.28;;;;;;;15.52;28.61;101230.59;5032918;28;20041;-75
2022/03/13 00:43:25;;;;;;;10.30;7.47;;;;;;;15.49;28.70;101228.09;5049031;28;20103;-75
2022/03/13 00:45:52;;;;;;;12.93;7.95;;;;;;;15.48;28.68;101218.16;5049720;28;20538;-75
2022/03/13 00:48:19;;;;;;;10.73;7.55;;;;;;;15.45;28.76;101218.41;5030608;28;20083;-75
2022/03/13 00:50:47;;;;;;;10.75;7.57;;;;;;;15.43;28.70;101214.06;5032193;28;20048;-75
2022/03/13 00:53:14;;;;;;;10.80;7.43;;;;;;;15.42;28.70;101212.31;5049047;28;20286;-75
2022/03/13 00:55:41;;;;;;;11.63;7.90;;;;;;;15.40;28.60;101204.22;5050077;28;20055;-75
2022/03/13 00:58:12;;;;;;;11.77;7.90;;;;;;;15.38;28.34;101195.28;5048959;28;20106;-75
2022/03/13 01:00:39;;;;;;;11.45;7.78;;;;;;;15.37;28.75;101199.03;5050356;28;20044;-75
2022/03/13 01:03:17;;;;;;;10.88;7.60;;;;;;;15.37;28.54;101199.03;5050416;28;20090;-75
2022/03/13 01:05:47;;;;;;;9.98;7.05;;;;;;;15.33;28.48;101188.44;5030544;28;20049;-75
2022/03/13 01:08:14;;;;;;;10.50;7.43;;;;;;;15.31;28.43;101190.44;5049070;28;20064;-75
2022/03/13 01:10:42;;;;;;;10.30;7.55;;;;;;;15.27;28.29;101189.81;5049925;28;20040;-75
2022/03/13 01:13:09;;;;;;;10.80;7.38;;;;;;;15.22;28.12;101184.72;5047624;28;20049;-76
2022/03/13 01:15:38;;;;;;;10.52;7.00;;;;;;;15.20;27.92;101191.31;5048305;28;20103;-75
2022/03/13 01:18:05;;;;;;;10.45;6.88;;;;;;;15.17;28.29;101177.88;5049294;28;20516;-75
2022/03/13 01:20:32;;;;;;;10.80;7.45;;;;;;;15.14;27.92;101165.34;5048249;28;20045;-75
2022/03/13 01:22:59;;;;;;;10.20;6.85;;;;;;;15.13;28.02;101173.66;5050057;28;20167;-75
2022/03/13 01:25:26;;;;;;;9.45;7.35;;;;;;;15.09;28.05;101170.28;5030317;28;20048;-75
2022/03/13 01:27:53;;;;;;;11.60;7.53;;;;;;;15.08;27.96;101162.19;5049008;28;20068;-75
2022/03/13 01:30:20;;;;;;;10.35;6.90;;;;;;;15.05;27.94;101162.47;5029730;28;20059;-75
2022/03/13 01:32:54;;;;;;;10.30;6.75;;;;;;;15.04;27.80;101158.00;5049307;28;20049;-75
2022/03/13 01:35:23;;;;;;;9.48;6.78;;;;;;;14.99;27.71;101162.97;5047722;28;20091;-75
2022/03/13 01:37:52;;;;;;;10.88;7.03;;;;;;;14.95;27.91;101154.13;5049639;28;20381;-75
2022/03/13 01:40:23;;;;;;;9.77;6.80;;;;;;;14.95;27.71;101156.00;5048045;28;20106;-75
2022/03/13 01:42:54;;;;;;;9.60;6.72;;;;;;;14.93;27.56;101144.31;5049632;28;20053;-75
2022/03/13 01:45:25;;;;;;;11.60;7.53;;;;;;;14.91;27.45;101140.81;5047457;28;20056;-75
2022/03/13 01:47:53;;;;;;;9.80;7.05;;;;;;;14.88;27.48;101143.81;5049831;28;20092;-75
2022/03/13 01:50:20;;;;;;;10.52;6.72;;;;;;;14.84;27.35;101137.72;5047693;28;20096;-75
2022/03/13 01:52:48;;;;;;;11.48;7.18;;;;;;;14.82;27.39;101136.97;5031589;28;20106;-75
2022/03/13 01:55:16;;;;;;;10.85;7.15;;;;;;;14.77;27.41;101131.00;5046668;28;20056;-75
2022/03/13 01:57:45;;;;;;;9.75;6.60;;;;;;;14.73;27.22;101134.97;5048840;28;20526;-75
2022/03/13 02:00:13;;;;;;;10.20;7.05;;;;;;;14.69;27.14;101133.47;5031043;28;20471;-75
2022/03/13 02:02:44;;;;;;;9.73;6.90;;;;;;;14.67;27.15;101127.25;5048463;28;20057;-75
2022/03/13 02:05:26;;;;;;;10.50;7.22;;;;;;;14.63;27.04;101123.03;5030070;28;20060;-75
2022/03/13 02:07:53;;;;;;;10.63;8.00;;;;;;;14.56;26.91;101127.25;5045923;28;20067;-75
2022/03/13 02:10:20;;;;;;;9.90;6.63;;;;;;;14.52;27.27;101114.81;5048210;28;20056;-75
2022/03/13 02:12:48;;;;;;;10.65;7.50;;;;;;;14.49;27.07;101121.41;5048697;28;20519;-75
2022/03/13 02:15:15;;;;;;;10.70;7.25;;;;;;;14.46;27.29;101117.03;5047217;28;20444;-75
2022/03/13 02:17:42;;;;;;;9.43;6.80;;;;;;;14.45;27.25;101114.44;5049098;28;20053;-75
2022/03/13 02:20:20;;;;;;;9.50;7.00;;;;;;;14.45;27.26;101117.16;5046837;28;20049;-75
2022/03/13 02:22:47;;;;;;;10.95;7.40;;;;;;;14.42;27.13;101111.94;5031217;28;20056;-75
2022/03/13 02:25:19;;;;;;;10.57;7.40;;;;;;;14.42;27.04;101114.66;5047031;28;20048;-75
2022/03/13 02:27:46;;;;;;;9.25;6.32;;;;;;;14.37;26.91;101106.81;5048945;28;20496;-74
2022/03/13 02:30:13;;;;;;;8.82;7.03;;;;;;;14.36;27.14;101109.66;5047458;28;20164;-75
2022/03/13 02:32:40;;;;;;;10.93;6.78;;;;;;;14.34;27.19;101104.31;5048702;28;20045;-75
2022/03/13 02:35:08;;;;;;;10.60;6.88;;;;;;;14.32;26.64;101113.63;5047306;28;20583;-75
2022/03/13 02:37:36;;;;;;;9.73;6.75;;;;;;;14.30;27.07;101099.22;5048539;28;20155;-75
2022/03/13 02:40:04;;;;;;;10.45;7.28;;;;;;;14.27;26.86;101113.97;5047521;28;20076;-75
2022/03/13 02:42:31;;;;;;;10.52;6.75;;;;;;;14.24;26.76;101102.44;5048640;28;20091;-75
2022/03/13 02:44:58;;;;;;;10.57;6.65;;;;;;;14.20;26.79;101095.47;5047094;28;20068;-73
2022/03/13 02:47:25;;;;;;;10.00;7.07;;;;;;;14.17;26.95;101095.69;5030839;28;20485;-73
2022/03/13 02:49:51;;;;;;;11.98;7.13;;;;;;;14.12;26.72;101089.72;5044533;28;20115;-73
2022/03/13 02:52:18;;;;;;;9.20;6.88;;;;;;;14.09;26.67;101093.56;5042985;28;20504;-73
2022/03/13 02:54:45;;;;;;;9.30;6.50;;;;;;;14.05;26.67;101089.34;5051356;28;20056;-73
2022/03/13 02:57:14;;;;;;;9.32;6.10;;;;;;;14.02;26.58;101084.09;5051485;28;20060;-74
2022/03/13 02:59:41;;;;;;;9.52;6.65;;;;;;;13.97;26.69;101084.47;5051011;28;20063;-73
2022/03/13 03:02:08;;;;;;;9.93;7.18;;;;;;;13.94;26.51;101081.09;5052649;28;20052;-74
2022/03/13 03:04:35;;;;;;;12.07;7.32;;;;;;;13.92;26.71;101083.06;5052203;28;20076;-75
2022/03/13 03:07:05;;;;;;;10.70;7.07;;;;;;;13.92;26.47;101080.34;5053929;28;20218;-75
2022/03/13 03:09:33;;;;;;;9.35;6.53;;;;;;;13.86;26.26;101075.34;5059383;28;20041;-75
2022/03/13 03:12:04;;;;;;;10.20;6.55;;;;;;;13.87;26.43;101085.28;5052386;28;20045;-75
2022/03/13 03:14:34;;;;;;;9.93;6.65;;;;;;;13.82;26.45;101072.00;5051135;28;20065;-75
2022/03/13 03:17:00;;;;;;;9.80;6.40;;;;;;;13.82;26.55;101069.28;5050260;28;20065;-75
2022/03/13 03:19:27;;;;;;;9.98;6.35;;;;;;;13.82;26.23;101073.88;5050817;28;20052;-75
2022/03/13 03:21:54;;;;;;;9.50;6.55;;;;;;;13.80;26.21;101068.53;5052218;28;20099;-75
2022/03/13 03:24:23;;;;;;;11.45;6.88;;;;;;;13.79;26.19;101074.09;5041541;28;20114;-75
2022/03/13 03:26:53;;;;;;;10.20;7.55;;;;;;;13.77;26.08;101073.34;5051411;28;20049;-75
2022/03/13 03:29:20;;;;;;;10.65;6.85;;;;;;;13.76;26.07;101082.50;5050517;28;20048;-75
2022/03/13 03:31:48;;;;;;;10.55;6.43;;;;;;;13.75;26.00;101076.22;5051440;28;20049;-75
2022/03/13 03:34:18;;;;;;;10.15;6.90;;;;;;;13.73;25.77;101072.72;5042525;28;20054;-75
2022/03/13 03:36:50;;;;;;;9.63;6.68;;;;;;;13.74;25.58;101074.47;5039277;28;20119;-75
2022/03/13 03:39:18;;;;;;;10.63;6.63;;;;;;;13.69;25.84;101082.97;5032530;28;20086;-75
2022/03/13 03:41:46;;;;;;;9.05;6.15;;;;;;;13.73;25.93;101090.94;5046819;28;20041;-75
2022/03/13 03:44:14;;;;;;;8.50;6.28;;;;;;;13.73;26.00;101083.63;5050422;28;20060;-75
2022/03/13 03:46:43;;;;;;;8.32;5.88;;;;;;;13.75;25.67;101081.66;5049736;28;20056;-75
2022/03/13 03:49:10;;;;;;;10.48;6.47;;;;;;;13.77;25.91;101090.59;5050552;28;20122;-75
2022/03/13 03:51:38;;;;;;;8.85;6.20;;;;;;;13.79;25.99;101085.88;5049816;28;20083;-75
2022/03/13 03:54:06;;;;;;;10.70;6.50;;;;;;;13.83;25.77;101086.53;5049332;28;20053;-75
2022/03/13 03:56:34;;;;;;;10.75;6.93;;;;;;;13.86;25.55;101089.00;5050415;28;20076;-75
2022/03/13 03:59:00;;;;;;;9.25;6.03;;;;;;;13.87;25.87;101088.03;5050524;28;20084;-75
2022/03/13 04:01:29;;;;;;;10.70;6.90;;;;;;;13.88;25.74;101085.19;5051098;28;20056;-75
2022/03/13 04:03:56;;;;;;;8.20;6.05;;;;;;;13.91;25.38;101075.91;5050405;28;20064;-75
2022/03/13 04:06:23;;;;;;;9.27;6.55;;;;;;;13.92;25.51;101083.06;5050614;28;20060;-75
2022/03/13 04:08:50;;;;;;;10.27;6.47;;;;;;;13.93;25.40;101082.94;5049649;28;20107;-75
2022/03/13 04:11:17;;;;;;;9.05;6.57;;;;;;;13.95;25.06;101089.19;5048702;28;20045;-75
2022/03/13 04:13:44;;;;;;;9.57;6.38;;;;;;;13.97;25.21;101083.59;5049368;28;20061;-75
2022/03/13 04:16:12;;;;;;;9.45;6.50;;;;;;;13.98;25.17;101082.63;5050479;28;20056;-75
2022/03/13 04:18:39;;;;;;;9.68;6.47;;;;;;;13.98;25.03;101072.56;5049347;28;20088;-75
2022/03/13 04:21:06;;;;;;;9.82;7.20;;;;;;;13.99;24.97;101073.44;5050519;28;20084;-75
2022/03/13 04:23:35;;;;;;;10.07;6.05;;;;;;;13.97;24.98;101073.56;5049530;28;20052;-75
2022/03/13 04:26:03;;;;;;;10.32;6.57;;;;;;;13.96;24.91;101074.53;5050369;28;20520;-75
2022/03/13 04:28:31;;;;;;;8.95;6.13;;;;;;;13.93;25.11;101071.16;5043541;28;20057;-75
2022/03/13 04:30:59;;;;;;;9.05;5.90;;;;;;;13.91;24.93;101068.56;5050119;28;20052;-75
2022/03/13 04:33:33;;;;;;;10.32;6.80;;;;;;;13.92;24.37;101073.03;5049185;28;20041;-75
2022/03/13 04:36:02;;;;;;;9.88;6.32;;;;;;;13.90;24.80;101076.88;5050243;28;20048;-75
2022/03/13 04:38:29;;;;;;;10.20;6.30;;;;;;;13.88;24.61;101079.72;5031318;28;20065;-75
2022/03/13 04:40:57;;;;;;;9.85;6.03;;;;;;;13.88;24.55;101077.00;5050996;28;20495;-75
2022/03/13 04:43:24;;;;;;;10.00;6.43;;;;;;;13.87;24.58;101077.09;5048879;28;20053;-75
2022/03/13 04:45:51;;;;;;;10.02;6.30;;;;;;;13.86;24.56;101078.09;5044746;28;20061;-75
2022/03/13 04:48:18;;;;;;;9.73;6.32;;;;;;;13.84;24.47;101069.16;5044555;28;20742;-75
2022/03/13 04:50:46;;;;;;;10.30;6.30;;;;;;;13.81;24.62;101067.53;5050248;28;20068;-75
2022/03/13 04:53:13;;;;;;;9.15;6.65;;;;;;;13.77;24.46;101063.28;5049816;28;20393;-75
2022/03/13 04:55:41;;;;;;;9.32;6.57;;;;;;;13.73;24.31;101059.06;5049639;28;20049;-75
2022/03/13 04:58:12;;;;;;;9.00;6.22;;;;;;;13.68;24.47;101053.06;5041606;28;20068;-75
2022/03/13 05:00:39;;;;;;;19.80;7.50;;;;;;;13.66;24.17;101047.75;5048905;28;20043;-75
2022/03/13 05:03:07;;;;;;;10.30;6.97;;;;;;;13.60;24.24;101050.94;5047272;28;20047;-75
2022/03/13 05:05:34;;;;;;;11.80;6.80;;;;;;;13.55;24.30;101060.47;5047024;28;20500;-75
2022/03/13 05:08:04;;;;;;;11.73;7.47;;;;;;;13.50;23.66;101051.78;5029582;28;20080;-75
2022/03/13 05:10:38;;;;;;;9.40;6.68;;;;;;;13.44;24.00;101066.72;5031652;28;20475;-75
2022/03/13 05:13:07;;;;;;;9.75;6.25;;;;;;;13.41;24.27;101074.28;5031201;28;20076;-75
2022/03/13 05:15:35;;;;;;;8.88;6.43;;;;;;;13.39;24.30;101066.22;5030779;28;20428;-75
2022/03/13 05:18:03;;;;;;;8.57;6.00;;;;;;;13.37;24.27;101062.72;5030487;28;20110;-75
2022/03/13 05:20:31;;;;;;;10.93;6.70;;;;;;;13.36;24.03;101071.88;5048415;28;20081;-75
2022/03/13 05:22:57;;;;;;;9.82;6.25;;;;;;;13.37;24.43;101075.50;5031612;28;20076;-75
2022/03/13 05:25:24;;;;;;;9.80;6.45;;;;;;;13.37;24.08;101062.72;5015772;28;20056;-75
2022/03/13 05:27:52;;;;;;;9.98;6.00;;;;;;;13.38;24.03;101055.41;5049542;28;20052;-75
2022/03/13 05:30:20;;;;;;;9.65;6.13;;;;;;;13.39;24.16;101062.63;5035838;28;20072;-75
2022/03/13 05:32:48;;;;;;;9.40;6.32;;;;;;;13.37;23.93;101075.50;5049346;28;20065;-75
2022/03/13 05:35:16;;;;;;;10.25;6.47;;;;;;;13.35;24.02;101070.16;5048239;28;20045;-74
2022/03/13 05:37:44;;;;;;;10.93;6.60;;;;;;;13.33;23.78;101070.28;5045670;28;20099;-74
2022/03/13 05:40:15;;;;;;;12.23;6.65;;;;;;;13.34;23.77;101072.00;5048519;28;20128;-75
2022/03/13 05:42:45;;;;;;;10.05;6.70;;;;;;;13.33;23.67;101073.00;5045974;28;20052;-75
2022/03/13 05:45:16;;;;;;;9.38;6.38;;;;;;;13.34;23.76;101063.81;5047565;28;20445;-75
2022/03/13 05:47:50;;;;;;;9.27;6.13;;;;;;;13.36;23.26;101069.16;5049063;28;20045;-75
2022/03/13 05:50:18;;;;;;;9.65;5.80;;;;;;;13.33;23.77;101074.88;5048513;28;20053;-75
2022/03/13 05:52:45;;;;;;;9.13;5.93;;;;;;;13.33;23.77;101074.88;5049363;28;20096;-75
2022/03/13 05:55:17;;;;;;;9.32;6.00;;;;;;;13.34;23.37;101077.47;5047439;28;20049;-75
2022/03/13 05:57:44;;;;;;;13.48;6.60;;;;;;;13.32;23.58;101068.53;5035083;28;20045;-75
2022/03/13 06:00:13;;;;;;;9.30;6.25;;;;;;;13.34;23.42;101077.47;5030486;28;20123;-75
2022/03/13 06:02:41;;;;;;;9.40;6.13;;;;;;;13.32;23.42;101079.44;5049019;28;20091;-75
2022/03/13 06:05:14;;;;;;;9.85;5.75;;;;;;;13.32;23.37;101090.34;5047936;28;20057;-75
2022/03/13 06:07:41;;;;;;;7.90;5.50;;;;;;;13.29;23.88;101096.03;5049603;28;20045;-75
2022/03/13 06:10:14;;;;;;;9.00;5.60;;;;;;;13.29;23.41;101098.75;5047896;28;20492;-74
2022/03/13 06:12:41;;;;;;;8.15;5.82;;;;;;;13.33;23.42;101088.50;5045358;28;20381;-74
2022/03/13 06:15:11;;;;;;;9.93;6.07;;;;;;;13.34;23.37;101098.44;5047095;28;20115;-74
2022/03/13 06:17:40;;;;;;;8.77;5.47;;;;;;;13.37;23.57;101097.31;5048634;28;20049;-75
2022/03/13 06:20:10;;;;;;;8.55;6.45;;;;;;;13.39;23.42;101101.66;5046429;28;20060;-75
2022/03/13 06:22:41;;;;;;;8.63;5.38;;;;;;;13.42;23.63;101101.47;5044026;28;20037;-75
2022/03/13 06:25:09;;;;;;;10.57;6.18;;;;;;;13.44;23.37;101110.38;5042888;28;20107;-75
2022/03/13 06:27:37;;;;;;;9.38;5.97;;;;;;;13.47;23.44;101106.56;5052016;28;20053;-74
2022/03/13 06:30:25;;;;;;;9.63;5.68;;;;;;;13.49;23.36;101105.47;5048808;28;20049;-75
2022/03/13 06:32:53;;;;;;;8.60;5.55;;;;;;;13.51;23.17;101105.31;5051825;28;20048;-75
2022/03/13 06:35:22;;;;;;;9.18;6.03;;;;;;;13.53;23.04;101096.03;5050998;28;20061;-75
2022/03/13 06:37:51;;;;;;;10.15;6.07;;;;;;;13.54;23.21;101102.38;5053044;28;20102;-74
2022/03/13 06:40:19;;;;;;;9.45;5.88;;;;;;;13.57;23.20;101102.16;5046535;28;20064;-74
2022/03/13 06:42:48;;;;;;;10.05;6.30;;;;;;;13.57;23.04;101105.75;5054452;28;20037;-74
2022/03/13 06:45:15;;;;;;;8.60;6.00;;;;;;;13.58;22.83;101096.59;5053231;28;20412;-74
2022/03/13 06:47:49;;;;;;;7.63;5.63;;;;;;;13.60;23.02;101108.22;5063616;28;20084;-74
2022/03/13 06:50:18;;;;;;;8.30;5.78;;;;;;;13.63;23.06;101101.69;5051700;28;20052;-74
2022/03/13 06:52:46;;;;;;;8.18;5.60;;;;;;;13.65;23.01;101099.72;5060124;28;20049;-74
2022/03/13 06:55:14;;;;;;;9.50;5.90;;;;;;;13.66;23.04;101096.88;5028152;28;20057;-74
2022/03/13 06:57:42;;;;;;;9.27;5.72;;;;;;;13.68;22.88;101105.78;5071227;28;20139;-75
2022/03/13 07:00:11;;;;;;;10.18;6.47;;;;;;;13.69;22.99;101085.72;5052827;28;20060;-74
2022/03/13 07:02:37;;;;;;;8.45;5.60;;;;;;;13.70;22.72;101101.09;5057025;28;20045;-74
2022/03/13 07:05:04;;;;;;;10.68;6.35;;;;;;;13.69;22.76;101102.09;5051034;28;20049;-74
2022/03/13 07:07:31;;;;;;;8.93;6.35;;;;;;;13.71;22.59;101096.50;5051770;28;20045;-74
2022/03/13 07:09:58;;;;;;;9.48;6.40;;;;;;;13.72;22.70;101095.53;5050866;28;20110;-74
2022/03/13 07:12:25;;;;;;;9.45;6.03;;;;;;;13.74;22.55;101096.28;5018386;28;20052;-74
2022/03/13 07:14:57;;;;;;;8.52;5.78;;;;;;;13.77;22.57;101095.16;5051062;28;20061;-74
2022/03/13 07:17:24;;;;;;;8.65;5.80;;;;;;;13.79;22.77;101090.47;5060223;28;20496;-74
2022/03/13 07:19:51;;;;;;;9.52;6.10;;;;;;;13.81;22.61;101097.56;5043329;28;20061;-74
2022/03/13 07:22:18;;;;;;;9.82;6.10;;;;;;;13.83;22.47;101101.06;5047460;28;20114;-74
2022/03/13 07:24:47;;;;;;;8.90;5.93;;;;;;;13.86;22.33;101102.66;5051933;28;20103;-74
2022/03/13 07:27:15;;;;;;;9.55;6.40;;;;;;;13.86;22.17;101095.34;5054249;28;20163;-75
2022/03/13 07:29:42;;;;;;;9.27;6.28;;;;;;;13.89;22.38;101100.56;5050476;28;20153;-75
2022/03/13 07:32:09;;;;;;;9.27;6.03;;;;;;;13.92;22.59;101097.59;5034065;28;20466;-74
2022/03/13 07:34:37;;;;;;;9.48;6.28;;;;;;;13.94;22.36;101108.41;5060575;28;20044;-74
2022/03/13 07:37:04;;;;;;;10.15;6.47;;;;;;;13.95;22.31;101101.94;5053047;28;20624;-74
2022/03/13 07:39:31;;;;;;;9.15;6.30;;;;;;;13.97;22.12;101099.97;5039564;28;20059;-74
2022/03/13 07:41:58;;;;;;;10.43;6.82;;;;;;;13.95;21.89;101097.38;5055661;28;20060;-74
2022/03/13 07:44:25;;;;;;;9.57;5.60;;;;;;;13.98;21.98;101099.88;5056096;28;20071;-75
2022/03/13 07:46:52;;;;;;;9.10;6.82;;;;;;;13.97;21.93;101094.53;5060253;28;20136;-75
2022/03/13 07:49:18;;;;;;;8.70;5.93;;;;;;;13.97;21.99;101097.25;5049569;28;20049;-74
2022/03/13 07:51:46;;;;;;;8.20;6.00;;;;;;;13.99;22.00;101098.00;5056019;28;20585;-74
2022/03/13 07:54:14;;;;;;;7.75;5.68;;;;;;;13.98;22.26;101096.25;5041065;28;20459;-73
2022/03/13 07:56:42;;;;;;;9.60;6.28;;;;;;;13.98;22.06;101096.25;5033828;28;20060;-74
2022/03/13 07:59:08;;;;;;;8.40;5.80;;;;;;;13.98;22.25;101094.41;5050562;28;20061;-74
2022/03/13 08:01:35;;;;;;;8.57;5.45;;;;;;;14.01;22.00;101105.06;5054245;28;20064;-74
2022/03/13 08:04:05;;;;;;;8.57;6.05;;;;;;;14.03;22.21;101099.50;5047570;28;20045;-74
2022/03/13 08:06:34;;;;;;;10.88;7.00;;;;;;;14.06;22.19;101099.28;5050180;28;20044;-73
2022/03/13 08:09:03;;;;;;;11.00;6.53;;;;;;;14.10;21.82;101089.84;5045261;28;20115;-74
2022/03/13 08:11:32;;;;;;;9.30;6.30;;;;;;;14.12;21.81;101103.38;5050968;28;20067;-74
2022/03/13 08:13:59;;;;;;;8.43;6.47;;;;;;;14.14;21.97;101101.41;5048095;28;20069;-74
2022/03/13 08:16:27;;;;;;;8.85;6.22;;;;;;;14.15;21.94;101101.28;5058170;28;20123;-75
2022/03/13 08:18:54;;;;;;;8.65;6.30;;;;;;;14.18;21.82;101092.84;5047059;28;20041;-75
2022/03/13 08:21:21;;;;;;;8.25;5.82;;;;;;;14.22;22.04;101104.41;5047936;28;20567;-75
2022/03/13 08:23:51;;;;;;;10.27;6.32;;;;;;;14.23;21.88;101098.84;5039399;28;20064;-74
2022/03/13 08:26:19;;;;;;;9.57;6.38;;;;;;;14.26;21.86;101084.91;5029114;28;20052;-74
2022/03/13 08:28:46;;;;;;;9.50;6.63;;;;;;;14.29;21.81;101092.88;5049059;28;20508;-74
2022/03/13 08:31:13;;;;;;;9.32;6.25;;;;;;;14.32;21.80;101092.66;5051572;28;20053;-74
2022/03/13 08:33:45;;;;;;;9.80;6.35;;;;;;;14.35;21.81;101092.38;5044216;28;20106;-74
2022/03/13 08:36:13;;;;;;;8.82;6.38;;;;;;;14.39;21.69;101083.00;5048392;28;20059;-73
2022/03/13 08:38:40;;;;;;;8.23;6.05;;;;;;;14.43;21.95;101078.16;5034762;28;20059;-74
2022/03/13 08:41:06;;;;;;;8.95;6.20;;;;;;;14.50;21.82;101084.00;5053668;28;20493;-75
2022/03/13 08:43:33;;;;;;;9.02;6.35;;;;;;;14.55;21.78;101095.44;5048680;28;20056;-74
2022/03/13 08:46:00;;;;;;;9.07;6.53;;;;;;;14.56;21.63;101092.59;5054731;28;20132;-74
2022/03/13 08:48:28;;;;;;;9.13;6.18;;;;;;;14.63;21.65;101090.25;5047848;28;20057;-74
2022/03/13 08:50:57;;;;;;;9.85;6.53;;;;;;;14.66;21.57;101085.38;5050314;28;20041;-75
2022/03/13 08:53:24;;;;;;;10.35;6.45;;;;;;;14.70;21.41;101084.16;5051457;28;20081;-75
2022/03/13 08:55:51;;;;;;;8.98;6.25;;;;;;;14.73;21.76;101088.53;5050893;28;20511;-74
2022/03/13 08:58:18;;;;;;;10.27;6.53;;;;;;;14.80;21.66;101087.03;5049859;28;20094;-73
2022/03/13 09:00:45;;;;;;;11.40;6.97;;;;;;;14.84;21.78;101083.91;5040896;28;20389;-74
2022/03/13 09:03:12;;;;;;;9.48;6.80;;;;;;;14.91;21.95;101080.66;5036359;28;20050;-75
2022/03/13 09:05:39;;;;;;;9.50;6.55;;;;;;;14.98;21.60;101084.66;5045505;28;20044;-74
2022/03/13 09:08:06;;;;;;;9.52;7.00;;;;;;;15.03;21.81;101086.03;5046610;28;20556;-74
2022/03/13 09:10:34;;;;;;;10.00;6.97;;;;;;;15.10;21.79;101089.13;5024824;28;20057;-74
2022/03/13 09:13:01;;;;;;;10.73;6.88;;;;;;;15.17;21.64;101095.81;5031305;28;20098;-74
2022/03/13 09:15:28;;;;;;;11.60;7.95;;;;;;;15.22;21.42;101085.38;5045309;28;20045;-75
2022/03/13 09:17:55;;;;;;;11.02;7.22;;;;;;;15.27;21.37;101091.34;5049677;28;20052;-75
2022/03/13 09:20:23;;;;;;;10.35;7.35;;;;;;;15.30;21.35;101085.63;5048344;28;20049;-76
2022/03/13 09:22:50;;;;;;;10.65;6.90;;;;;;;15.35;21.43;101094.31;5050093;28;20098;-75
2022/03/13 09:25:18;;;;;;;9.93;7.22;;;;;;;15.39;21.46;101084.00;5047612;28;20056;-77
2022/03/13 09:27:46;;;;;;;9.27;6.50;;;;;;;15.42;21.57;101075.50;5027930;28;20041;-75
2022/03/13 09:30:13;;;;;;;10.82;7.03;;;;;;;15.44;21.41;101082.59;5030823;28;20052;-74
2022/03/13 09:32:41;;;;;;;12.95;7.32;;;;;;;15.50;21.14;101086.69;5049065;28;20277;-74
2022/03/13 09:35:10;;;;;;;9.85;7.32;;;;;;;15.49;21.35;101091.28;5055846;28;20143;-75
2022/03/13 09:37:39;;;;;;;9.70;7.22;;;;;;;15.49;21.24;101085.81;5049893;28;20045;-74
2022/03/13 09:40:16;;;;;;;11.35;7.40;;;;;;;15.49;20.95;101084.94;5042371;28;20511;-74
2022/03/13 09:42:44;;;;;;;9.90;6.63;;;;;;;15.50;21.39;101086.69;5033652;28;20055;-74
2022/03/13 09:45:12;;;;;;;10.93;7.78;;;;;;;15.50;21.11;101075.72;5042561;28;20401;-74
2022/03/13 09:47:40;;;;;;;11.40;7.50;;;;;;;15.50;21.34;101073.88;5047907;28;20044;-75
2022/03/13 09:50:09;;;;;;;9.57;6.82;;;;;;;15.55;21.32;101065.31;5047674;28;20088;-74
2022/03/13 09:52:37;;;;;;;10.98;6.55;;;;;;;15.57;21.60;101066.03;5031629;28;20493;-74
2022/03/13 09:55:05;;;;;;;10.65;6.78;;;;;;;15.60;21.27;101065.78;5042897;28;20151;-75
2022/03/13 09:57:33;;;;;;;10.65;7.05;;;;;;;15.62;21.20;101066.53;5048610;28;20053;-74
2022/03/13 10:00:00;;;;;;;12.07;8.15;;;;;;;15.66;21.25;101065.25;5046540;28;20060;-74
2022/03/13 10:02:53;;;;;;;11.45;7.43;;;;;;;15.71;21.27;101053.94;5048967;28;20049;-75
2022/03/13 10:05:22;;;;;;;10.80;6.95;;;;;;;15.71;21.42;101060.28;5045511;28;20045;-74
2022/03/13 10:07:59;;;;;;;10.38;7.05;;;;;;;15.78;21.43;101060.63;5048904;28;20071;-74
2022/03/13 10:10:40;;;;;;;10.20;6.82;;;;;;;15.83;21.30;101051.00;5048683;28;20369;-74
2022/03/13 10:13:08;;;;;;;11.55;7.60;;;;;;;15.86;21.43;101058.97;5041614;28;20056;-74
2022/03/13 10:15:46;;;;;;;9.48;6.97;;;;;;;15.94;21.28;101053.69;5046827;28;20174;-74
2022/03/13 10:18:17;;;;;;;9.30;6.78;;;;;;;15.99;21.63;101050.56;5041384;28;20135;-75
2022/03/13 10:20:48;;;;;;;11.82;7.72;;;;;;;16.09;21.45;101053.38;5048512;28;20054;-74
2022/03/13 10:23:18;;;;;;;9.77;6.75;;;;;;;16.15;21.84;101050.09;5047190;28;20080;-75
2022/03/13 10:25:46;;;;;;;11.70;7.15;;;;;;;16.24;21.72;101052.91;5053707;28;20112;-75
2022/03/13 10:28:22;;;;;;;10.88;7.65;;;;;;;16.36;21.76;101056.44;5046899;28;20056;-75
2022/03/13 10:30:59;;;;;;;10.60;6.80;;;;;;;16.47;21.91;101050.88;5048458;28;20059;-75
2022/03/13 10:33:45;;;;;;;9.43;6.38;;;;;;;16.58;22.17;101056.28;5044447;28;20052;-75
2022/03/13 10:36:21;;;;;;;9.98;7.00;;;;;;;16.74;22.04;101040.22;5046498;28;20045;-75
2022/03/13 10:38:49;;;;;;;10.40;7.38;;;;;;;16.89;21.87;101037.09;5044756;28;20053;-75
2022/03/13 10:41:17;;;;;;;9.80;6.95;;;;;;;17.06;22.16;101036.44;5045180;28;20078;-74
2022/03/13 10:43:52;;;;;;;10.68;7.28;;;;;;;17.24;21.84;101039.38;5037974;28;20052;-74
2022/03/13 10:46:26;;;;;;;12.07;8.27;;;;;;;17.40;21.82;101031.47;5044581;28;20590;-74
2022/03/13 10:48:54;;;;;;;9.50;7.35;;;;;;;17.50;22.01;101030.50;5050376;28;20052;-74
2022/03/13 10:51:45;;;;;;;10.43;7.72;;;;;;;17.69;21.56;101026.94;5031191;28;20049;-74
2022/03/13 10:54:30;;;;;;;10.35;7.90;;;;;;;17.84;21.39;101030.09;5029815;28;20522;-74
2022/03/13 10:57:08;;;;;;;12.55;8.48;;;;;;;17.98;21.59;101026.03;5044978;28;20051;-74
2022/03/13 10:59:35;;;;;;;10.90;7.53;;;;;;;18.05;21.72;101017.06;5047063;28;20099;-74
2022/03/13 11:02:24;;;;;;;10.13;7.20;;;;;;;18.20;21.81;101021.06;5044150;28;20057;-74
2022/03/13 11:04:55;;;;;;;11.60;8.05;;;;;;;18.36;21.83;101019.63;5046398;28;20049;-74
2022/03/13 11:07:24;;;;;;;11.15;7.10;;;;;;;18.46;22.47;101015.81;5029983;28;20049;-75
2022/03/13 11:09:51;;;;;;;11.38;7.28;;;;;;;18.60;21.76;101020.88;5040633;28;20131;-73
2022/03/13 11:12:20;;;;;;;11.05;8.10;;;;;;;18.72;21.92;101010.53;5046298;28;20389;-74
2022/03/13 11:14:49;;;;;;;10.77;8.13;;;;;;;18.88;21.69;101023.66;5054842;28;20076;-74
2022/03/13 11:17:18;;;;;;;10.35;7.63;;;;;;;18.98;21.70;101013.47;5058911;28;20053;-74
2022/03/13 11:19:49;;;;;;;11.32;8.18;;;;;;;19.07;21.74;101011.69;5050328;28;20049;-74
2022/03/13 11:22:20;;;;;;;11.10;7.53;;;;;;;19.17;21.71;101010.63;5053500;28;20094;-74
2022/03/13 11:24:49;;;;;;;10.70;7.05;;;;;;;19.26;21.40;100998.69;5048807;28;20206;-74
2022/03/13 11:27:17;;;;;;;10.38;7.63;;;;;;;19.35;21.60;100994.13;5050788;28;20045;-73
2022/03/13 11:29:52;;;;;;;8.35;6.50;;;;;;;19.46;21.95;100993.88;5049351;28;20115;-74